Time;durP1;ratioP1;P1;durP2;ratioP2;P2;SDS_P1;SDS_P2;PMS_P1;PMS_P2;Temp;Humidity;BMP_temperature;BMP_pressure;BME280_temperature;BME280_humidity;BME280_pressure;Samples;Min_cycle;Max_cycle;Signal;HPM_P1;HPM_P2
2023/07/23 00:01:16;;;;;;;;;;;;;;;30.51;56.62;99267.81;2502849;27;19933;-78
2023/07/23 00:01:26;;;;;;;;;;;;;;;30.50;56.73;99266.13;354388;27;915;-78
2023/07/23 00:01:36;;;;;;;;;;;;;;;30.51;56.50;99272.38;351677;28;1418;-78
2023/07/23 00:01:46;;;;;;;;;;;;;;;30.50;56.09;99265.31;351092;28;1255;-78
2023/07/23 00:01:56;;;;;;;;;;;;;;;30.50;56.23;99262.59;351942;28;1110;-78
2023/07/23 00:02:07;;;;;;;;;;;;;;;30.49;56.84;99269.88;351694;28;1287;-78
2023/07/23 00:02:17;;;;;;;;;;;;;;;30.49;56.69;99264.47;350499;28;1418;-78
2023/07/23 00:02:27;;;;;;;;;;;;;;;30.47;56.51;99269.22;348532;28;1338;-78
2023/07/23 00:02:37;;;;;;;;;;;;;;;30.45;56.46;99263.19;346283;28;812;-78
2023/07/23 00:02:48;;;;;;;;;;;;;;;30.45;56.56;99268.59;348045;28;1215;-78
2023/07/23 00:02:58;;;;;;;;;;;;;;;30.44;56.51;99261.53;351582;28;1203;-78
2023/07/23 00:03:08;;;;;;;;;;;;;;;30.42;56.52;99264.44;350474;28;879;-78
2023/07/23 00:03:18;;;;;;;;;;;;;;;30.43;56.46;99263.41;349157;28;804;-79
2023/07/23 00:03:29;;;;;;;;;;;;;;;30.44;56.68;99261.53;350376;28;1487;-79
2023/07/23 00:03:39;;;;;;;;;;;;;;;30.45;56.64;99264.03;349551;28;1291;-79
2023/07/23 00:03:49;;;;;;;;;;;;;;;30.46;56.42;99267.56;349331;28;1326;-79
2023/07/23 00:03:59;;;;;;;;;;;;;;;30.46;56.71;99264.88;350734;28;1088;-79
2023/07/23 00:04:10;;;;;;;;;;;;;;;30.47;56.46;99263.00;349157;28;1377;-79
2023/07/23 00:04:20;;;;;;;;;;;;;;;30.46;56.21;99264.88;350568;28;1229;-79
2023/07/23 00:04:30;;;;;;;;;;;;;;;30.45;56.22;99263.19;347562;28;1275;-79
2023/07/23 00:04:41;;;;;;;;;;;;;;;30.44;56.83;99262.38;350608;28;848;-79
2023/07/23 00:04:51;;;;;;;;;;;;;;;30.43;56.27;99263.41;348926;28;1359;-79
2023/07/23 00:05:01;;;;;;;;;;;;;;;30.44;56.06;99267.75;348131;28;1216;-79
2023/07/23 00:05:11;;;;;;;;;;;;;;;30.44;56.30;99264.22;348618;28;1215;-79
2023/07/23 00:05:23;;;;;;;;;;;;;;;30.41;56.30;99261.94;348762;28;1442;-79
2023/07/23 00:05:33;;;;;;;;;;;;;;;30.41;56.25;99267.31;347689;28;872;-79
2023/07/23 00:05:44;;;;;;;;;;;;;;;30.40;56.76;99262.97;347489;28;1308;-79
2023/07/23 00:05:55;;;;;;;;;;;;;;;30.40;56.52;99265.66;348790;28;1203;-79
2023/07/23 00:06:05;;;;;;;;;;;;;;;30.39;56.73;99269.38;346988;28;1311;-79
2023/07/23 00:06:16;;;;;;;;;;;;;;;30.39;56.30;99267.53;346280;28;1306;-79
2023/07/23 00:06:27;;;;;;;;;;;;;;;30.39;56.92;99264.81;345690;28;1482;-79
2023/07/23 00:06:38;;;;;;;;;;;;;;;30.40;56.40;99262.97;347776;28;873;-79
2023/07/23 00:06:48;;;;;;;;;;;;;;;30.42;56.33;99274.41;346360;28;1310;-79
2023/07/23 00:06:58;;;;;;;;;;;;;;;30.42;56.31;99263.59;346041;28;920;-79
2023/07/23 00:07:09;;;;;;;;;;;;;;;30.41;56.70;99268.16;346058;28;1298;-80
2023/07/23 00:07:19;;;;;;;;;;;;;;;30.40;56.90;99271.06;344689;28;852;-80
2023/07/23 00:07:30;;;;;;;;;;;;;;;30.40;56.48;99266.50;340897;28;1330;-80
2023/07/23 00:07:40;;;;;;;;;;;;;;;30.39;56.57;99270.22;340493;29;1254;-79
2023/07/23 00:07:50;;;;;;;;;;;;;;;30.39;56.46;99266.69;339556;28;1049;-80
2023/07/23 00:08:01;;;;;;;;;;;;;;;30.37;56.73;99271.47;340938;29;1187;-79
2023/07/23 00:08:11;;;;;;;;;;;;;;;30.37;56.79;99274.16;339440;29;1246;-79
2023/07/23 00:08:21;;;;;;;;;;;;;;;30.38;56.99;99268.56;339758;29;849;-79
2023/07/23 00:08:32;;;;;;;;;;;;;;;30.38;57.02;99268.56;339623;29;795;-79
2023/07/23 00:08:42;;;;;;;;;;;;;;;30.39;56.83;99272.09;340903;29;1246;-79
2023/07/23 00:08:52;;;;;;;;;;;;;;;30.39;56.51;99272.09;337173;29;1259;-79
2023/07/23 00:09:03;;;;;;;;;;;;;;;30.37;56.82;99271.47;333252;29;1192;-79
2023/07/23 00:09:13;;;;;;;;;;;;;;;30.38;56.65;99270.41;338912;28;2225;-79
2023/07/23 00:09:23;;;;;;;;;;;;;;;30.37;56.74;99274.16;337632;29;1992;-79
2023/07/23 00:09:33;;;;;;;;;;;;;;;30.35;57.34;99274.34;336120;29;4567;-79
2023/07/23 00:09:44;;;;;;;;;;;;;;;30.35;57.25;99279.75;338168;29;5103;-79
2023/07/23 00:09:54;;;;;;;;;;;;;;;30.36;57.03;99276.03;337175;29;3509;-79
2023/07/23 00:10:05;;;;;;;;;;;;;;;30.35;57.17;99276.22;334434;29;3109;-79
2023/07/23 00:10:15;;;;;;;;;;;;;;;30.37;57.04;99284.97;335933;29;1282;-79
2023/07/23 00:10:25;;;;;;;;;;;;;;;30.37;57.12;99277.69;336429;29;1274;-79
2023/07/23 00:10:35;;;;;;;;;;;;;;;30.37;57.05;99280.38;335418;29;1193;-79
2023/07/23 00:10:46;;;;;;;;;;;;;;;30.37;56.70;99279.56;333276;29;759;-79
2023/07/23 00:10:57;;;;;;;;;;;;;;;30.38;56.97;99281.22;333924;29;1486;-80
2023/07/23 00:11:07;;;;;;;;;;;;;;;30.38;56.73;99275.81;334641;29;1429;-79
2023/07/23 00:11:18;;;;;;;;;;;;;;;30.39;57.06;99281.03;335830;29;795;-79
2023/07/23 00:11:28;;;;;;;;;;;;;;;30.39;57.08;99283.72;336546;29;2528;-79
2023/07/23 00:11:38;;;;;;;;;;;;;;;30.38;56.74;99282.06;333594;29;1829;-79
2023/07/23 00:11:48;;;;;;;;;;;;;;;30.37;57.23;99293.91;332066;29;1219;-79
2023/07/23 00:11:59;;;;;;;;;;;;;;;30.38;56.74;99289.31;333895;29;2021;-78
2023/07/23 00:12:10;;;;;;;;;;;;;;;30.39;56.87;99285.59;334994;29;1915;-78
2023/07/23 00:12:20;;;;;;;;;;;;;;;30.38;56.91;99283.94;333312;29;1671;-78
2023/07/23 00:12:30;;;;;;;;;;;;;;;30.37;56.90;99284.97;334513;29;873;-78
2023/07/23 00:12:40;;;;;;;;;;;;;;;30.39;57.38;99291.00;329254;29;1198;-78
2023/07/23 00:12:51;;;;;;;;;;;;;;;30.38;57.38;99289.31;327756;29;1324;-78
2023/07/23 00:13:01;;;;;;;;;;;;;;;30.36;57.56;99286.00;326821;30;1242;-78
2023/07/23 00:13:11;;;;;;;;;;;;;;;30.35;57.46;99287.03;331376;29;1976;-78
2023/07/23 00:13:21;;;;;;;;;;;;;;;30.36;57.33;99289.53;330474;29;2136;-78
2023/07/23 00:13:32;;;;;;;;;;;;;;;30.38;57.16;99283.94;330643;29;1209;-78
2023/07/23 00:13:42;;;;;;;;;;;;;;;30.38;57.36;99283.94;329695;29;2245;-78
2023/07/23 00:13:52;;;;;;;;;;;;;;;30.37;57.31;99287.66;330448;29;2350;-78
2023/07/23 00:14:02;;;;;;;;;;;;;;;30.35;57.04;99287.84;330731;29;1295;-78
2023/07/23 00:14:12;;;;;;;;;;;;;;;30.36;57.25;99286.00;333444;29;2538;-78
2023/07/23 00:14:23;;;;;;;;;;;;;;;30.37;57.31;99282.25;329083;29;2496;-78
2023/07/23 00:14:33;;;;;;;;;;;;;;;30.37;57.12;99277.69;328093;30;1339;-78
2023/07/23 00:14:43;;;;;;;;;;;;;;;30.37;57.25;99287.66;330652;29;1780;-78
2023/07/23 00:14:53;;;;;;;;;;;;;;;30.35;57.65;99284.31;331090;29;1672;-78
2023/07/23 00:15:04;;;;;;;;;;;;;;;30.35;57.42;99281.63;331958;29;1089;-78
2023/07/23 00:15:14;;;;;;;;;;;;;;;30.36;57.33;99280.59;325742;29;1951;-78
2023/07/23 00:15:24;;;;;;;;;;;;;;;30.36;57.16;99286.00;323464;30;2496;-78
2023/07/23 00:15:35;;;;;;;;;;;;;;;30.36;57.46;99286.00;322270;30;1229;-78
2023/07/23 00:15:45;;;;;;;;;;;;;;;30.36;57.35;99281.41;317560;31;1282;-78
2023/07/23 00:15:55;;;;;;;;;;;;;;;30.36;57.61;99289.53;318714;30;2995;-78
2023/07/23 00:16:05;;;;;;;;;;;;;;;30.37;57.52;99284.97;316731;30;3107;-78
2023/07/23 00:16:15;;;;;;;;;;;;;;;30.37;57.76;99284.97;315875;31;1222;-78
2023/07/23 00:16:26;;;;;;;;;;;;;;;30.36;57.62;99283.28;314792;31;3103;-78
2023/07/23 00:16:36;;;;;;;;;;;;;;;30.36;57.52;99286.00;316274;30;2975;-78
2023/07/23 00:16:46;;;;;;;;;;;;;;;30.36;57.50;99288.69;318828;31;896;-78
2023/07/23 00:16:56;;;;;;;;;;;;;;;30.35;57.14;99290.56;317043;31;2349;-78
2023/07/23 00:17:07;;;;;;;;;;;;;;;30.34;57.31;99285.34;317356;31;2508;-78
2023/07/23 00:17:18;;;;;;;;;;;;;;;30.34;57.59;99286.19;317577;31;1280;-79
2023/07/23 00:17:28;;;;;;;;;;;;;;;30.34;57.37;99285.34;316727;31;2947;-79
2023/07/23 00:17:41;;;;;;;;;;;;;;;30.35;57.60;99287.03;314844;31;3244;-79
2023/07/23 00:17:51;;;;;;;;;;;;;;;30.35;57.14;99289.72;314791;31;4067;-79
2023/07/23 00:18:03;;;;;;;;;;;;;;;30.33;57.87;99286.38;314836;31;1545;-79
2023/07/23 00:18:13;;;;;;;;;;;;;;;30.33;57.55;99289.09;311626;31;4504;-79
2023/07/23 00:18:23;;;;;;;;;;;;;;;30.32;57.84;99287.44;310866;31;4092;-79
2023/07/23 00:18:33;;;;;;;;;;;;;;;30.32;57.32;99287.44;310946;31;1329;-79
2023/07/23 00:18:44;;;;;;;;;;;;;;;30.32;57.90;99287.44;308535;31;4837;-79
2023/07/23 00:18:54;;;;;;;;;;;;;;;30.33;57.21;99280.97;305835;32;5021;-78
2023/07/23 00:19:05;;;;;;;;;;;;;;;30.32;57.63;99284.75;306943;32;4980;-78
2023/07/23 00:19:21;;;;;;;;;;;;;;;30.32;57.35;99285.59;302131;32;1383;-78
2023/07/23 00:19:31;;;;;;;;;;;;;;;30.32;57.95;99290.16;300189;32;949;-78
2023/07/23 00:19:41;;;;;;;;;;;;;;;30.32;57.46;99290.16;298915;32;4180;-78
2023/07/23 00:19:52;;;;;;;;;;;;;;;30.31;57.82;99288.47;297615;33;5052;-78
2023/07/23 00:20:04;;;;;;;;;;;;;;;30.30;57.22;99287.66;296242;33;1240;-78
2023/07/23 00:20:14;;;;;;;;;;;;;;;30.29;57.46;99285.13;295632;33;6039;-78
2023/07/23 00:20:24;;;;;;;;;;;;;;;30.29;57.27;99285.13;296012;33;5931;-78
2023/07/23 00:20:34;;;;;;;;;;;;;;;30.28;57.71;99284.31;296850;33;1449;-78
2023/07/23 00:20:45;;;;;;;;;;;;;;;30.27;57.83;99281.81;297360;33;6595;-78
2023/07/23 00:20:55;;;;;;;;;;;;;;;30.24;57.18;99284.91;296708;33;6019;-78
2023/07/23 00:21:05;;;;;;;;;;;;;;;30.23;57.74;99288.63;294462;33;5412;-78
2023/07/23 00:21:16;;;;;;;;;;;;;;;30.16;57.61;99290.44;290383;34;1264;-79
2023/07/23 00:21:26;;;;;;;;;;;;;;;30.14;57.50;99290.63;290001;33;4881;-79
2023/07/23 00:21:36;;;;;;;;;;;;;;;30.11;58.06;99288.31;287994;34;4940;-79
2023/07/23 00:21:47;;;;;;;;;;;;;;;30.10;57.95;99286.66;285666;34;1265;-79
2023/07/23 00:21:57;;;;;;;;;;;;;;;30.06;58.20;99282.69;283293;34;6052;-79
2023/07/23 00:22:07;;;;;;;;;;;;;;;30.05;58.17;99289.09;281251;34;7992;-79
2023/07/23 00:22:18;;;;;;;;;;;;;;;30.03;57.82;99292.00;281057;35;1360;-79
2023/07/23 00:22:28;;;;;;;;;;;;;;;30.03;58.26;99285.75;281048;34;8501;-79
2023/07/23 00:22:39;;;;;;;;;;;;;;;30.04;58.25;99296.38;280491;34;8101;-79
2023/07/23 00:22:49;;;;;;;;;;;;;;;30.05;58.20;99289.94;280924;35;1258;-79
2023/07/23 00:22:59;;;;;;;;;;;;;;;30.06;57.49;99290.78;277627;35;10474;-79
2023/07/23 00:25:11;;;;;;;;;;;;;;;30.18;57.05;99288.38;2492750;27;19930;-78
2023/07/23 00:25:22;;;;;;;;;;;;;;;30.18;57.44;99294.63;353182;28;1300;-78
2023/07/23 00:25:32;;;;;;;;;;;;;;;30.17;57.02;99297.50;351549;28;1520;-78
2023/07/23 00:25:42;;;;;;;;;;;;;;;30.19;57.00;99292.75;350534;28;749;-78
2023/07/23 00:25:54;;;;;;;;;;;;;;;30.18;57.24;99282.97;347769;28;1260;-78
2023/07/23 00:26:04;;;;;;;;;;;;;;;30.18;57.23;99291.06;347650;28;1272;-78
2023/07/23 00:26:14;;;;;;;;;;;;;;;30.17;56.73;99286.72;349209;28;864;-78
2023/07/23 00:26:25;;;;;;;;;;;;;;;30.16;57.19;99295.84;350468;28;785;-78
2023/07/23 00:26:35;;;;;;;;;;;;;;;30.15;57.38;99288.78;348809;28;1228;-78
2023/07/23 00:26:45;;;;;;;;;;;;;;;30.16;57.07;99291.28;349049;28;856;-78
2023/07/23 00:26:55;;;;;;;;;;;;;;;30.16;56.99;99290.44;348912;28;1183;-78
2023/07/23 00:27:05;;;;;;;;;;;;;;;30.17;57.35;99286.72;347639;28;1287;-78
2023/07/23 00:27:16;;;;;;;;;;;;;;;30.17;56.91;99292.09;348866;28;1290;-78
2023/07/23 00:27:26;;;;;;;;;;;;;;;30.17;57.08;99294.81;350442;28;1454;-78
2023/07/23 00:27:36;;;;;;;;;;;;;;;30.17;57.05;99286.72;350866;28;1373;-78
2023/07/23 00:27:46;;;;;;;;;;;;;;;30.16;57.25;99291.28;349037;28;1302;-78
2023/07/23 00:27:57;;;;;;;;;;;;;;;30.16;56.99;99290.44;347797;28;3761;-78
2023/07/23 00:28:07;;;;;;;;;;;;;;;30.17;57.18;99292.09;345642;28;5211;-77
2023/07/23 00:28:17;;;;;;;;;;;;;;;30.18;57.06;99299.19;347561;28;3249;-77
2023/07/23 00:28:27;;;;;;;;;;;;;;;30.16;56.68;99290.44;346175;28;1342;-77
2023/07/23 00:28:38;;;;;;;;;;;;;;;30.15;56.55;99288.78;346219;28;3495;-77
2023/07/23 00:28:48;;;;;;;;;;;;;;;30.15;56.47;99291.47;346580;28;1323;-77
2023/07/23 00:28:58;;;;;;;;;;;;;;;30.15;57.03;99288.78;349967;28;1532;-77
2023/07/23 00:29:08;;;;;;;;;;;;;;;30.16;56.87;99287.75;351432;28;1340;-77
2023/07/23 00:29:18;;;;;;;;;;;;;;;30.16;56.62;99295.84;347971;28;1210;-77
2023/07/23 00:29:29;;;;;;;;;;;;;;;30.16;56.85;99290.44;348986;28;1199;-77
2023/07/23 00:29:42;;;;;;;;;;;;;;;30.16;56.45;99293.13;347757;28;1291;-77
2023/07/23 00:29:52;;;;;;;;;;;;;;;30.16;57.05;99290.44;349433;28;1266;-77
2023/07/23 00:30:03;;;;;;;;;;;;;;;30.17;56.58;99289.41;348953;28;1236;-77
2023/07/23 00:30:14;;;;;;;;;;;;;;;30.18;56.84;99291.06;347702;28;1182;-77
2023/07/23 00:30:24;;;;;;;;;;;;;;;30.17;57.00;99300.22;346305;28;800;-77
2023/07/23 00:30:35;;;;;;;;;;;;;;;30.16;56.81;99293.13;347540;28;1218;-77
2023/07/23 00:30:45;;;;;;;;;;;;;;;30.16;56.94;99293.13;347775;28;788;-77
2023/07/23 00:30:55;;;;;;;;;;;;;;;30.15;56.91;99294.16;344636;28;1322;-77
2023/07/23 00:31:06;;;;;;;;;;;;;;;30.15;56.42;99304.97;346084;28;1283;-77
2023/07/23 00:31:16;;;;;;;;;;;;;;;30.14;57.03;99296.03;343477;28;2151;-77
2023/07/23 00:31:26;;;;;;;;;;;;;;;30.15;56.83;99299.56;344449;28;1111;-77
2023/07/23 00:31:37;;;;;;;;;;;;;;;30.14;57.11;99298.72;343358;28;1236;-77
2023/07/23 00:31:47;;;;;;;;;;;;;;;30.14;57.01;99295.19;342685;28;1085;-77
2023/07/23 00:31:57;;;;;;;;;;;;;;;30.15;56.91;99299.56;343467;28;1316;-77
2023/07/23 00:32:08;;;;;;;;;;;;;;;30.15;56.87;99299.56;343527;28;1457;-77
2023/07/23 00:32:18;;;;;;;;;;;;;;;30.13;56.57;99291.66;340796;29;1344;-77
2023/07/23 00:32:28;;;;;;;;;;;;;;;30.13;56.67;99293.53;340889;29;829;-77
2023/07/23 00:32:38;;;;;;;;;;;;;;;30.11;56.94;99294.56;341559;28;1385;-77
2023/07/23 00:32:49;;;;;;;;;;;;;;;30.13;56.56;99296.22;342524;28;1211;-77
2023/07/23 00:32:59;;;;;;;;;;;;;;;30.13;56.95;99301.63;343596;28;1215;-77
2023/07/23 00:33:09;;;;;;;;;;;;;;;30.14;56.31;99297.91;345150;28;1314;-77
2023/07/23 00:33:23;;;;;;;;;;;;;;;30.14;56.72;99297.91;343836;28;1465;-77
2023/07/23 00:33:33;;;;;;;;;;;;;;;30.15;56.85;99296.88;344010;28;1232;-77
2023/07/23 00:33:43;;;;;;;;;;;;;;;30.11;56.87;99305.34;346197;28;1491;-77
2023/07/23 00:33:53;;;;;;;;;;;;;;;30.11;56.95;99299.97;343626;28;1643;-77
2023/07/23 00:34:05;;;;;;;;;;;;;;;30.11;57.15;99296.44;345245;28;1365;-77
2023/07/23 00:34:15;;;;;;;;;;;;;;;30.11;56.69;99294.56;340525;29;1440;-77
2023/07/23 00:34:26;;;;;;;;;;;;;;;30.13;56.90;99298.94;342127;28;1355;-77
2023/07/23 00:34:36;;;;;;;;;;;;;;;30.13;56.82;99301.63;342201;28;862;-77
2023/07/23 00:34:46;;;;;;;;;;;;;;;30.13;56.87;99301.63;342091;28;1321;-77
2023/07/23 00:34:56;;;;;;;;;;;;;;;30.14;56.47;99300.59;339619;29;1451;-77
2023/07/23 00:35:07;;;;;;;;;;;;;;;30.13;56.77;99297.06;339447;29;1447;-77
2023/07/23 00:35:19;;;;;;;;;;;;;;;30.11;57.34;99293.72;336324;29;1950;-77
2023/07/23 00:35:29;;;;;;;;;;;;;;;30.10;57.26;99301.00;339635;29;1376;-79
2023/07/23 00:35:39;;;;;;;;;;;;;;;30.08;57.05;99297.66;341951;28;1985;-78
2023/07/23 00:35:50;;;;;;;;;;;;;;;30.09;56.93;99301.19;338066;29;2102;-78
2023/07/23 00:36:00;;;;;;;;;;;;;;;30.10;56.68;99297.47;336765;29;1120;-78
2023/07/23 00:36:10;;;;;;;;;;;;;;;30.09;57.19;99295.78;339446;29;2129;-79
2023/07/23 00:36:20;;;;;;;;;;;;;;;30.10;56.83;99300.16;339922;29;1664;-79
2023/07/23 00:36:31;;;;;;;;;;;;;;;30.11;56.78;99299.13;341521;28;1379;-78
2023/07/23 00:36:41;;;;;;;;;;;;;;;30.10;56.88;99303.69;338430;29;1316;-79
2023/07/23 00:36:51;;;;;;;;;;;;;;;30.10;56.98;99302.84;338432;29;1169;-79
2023/07/23 00:37:03;;;;;;;;;;;;;;;30.08;57.42;99300.34;338497;28;1775;-79
2023/07/23 00:37:13;;;;;;;;;;;;;;;30.06;57.51;99302.41;339220;29;3950;-78
2023/07/23 00:37:23;;;;;;;;;;;;;;;30.05;57.08;99300.75;333979;29;5130;-78
2023/07/23 00:37:34;;;;;;;;;;;;;;;30.06;57.10;99301.56;336598;29;3004;-78
2023/07/23 00:37:44;;;;;;;;;;;;;;;30.06;57.14;99302.41;335527;29;1408;-78
2023/07/23 00:37:54;;;;;;;;;;;;;;;30.05;57.63;99292.63;335331;29;2401;-78
2023/07/23 00:38:05;;;;;;;;;;;;;;;30.05;57.60;99306.13;334005;29;2652;-78
2023/07/23 00:38:15;;;;;;;;;;;;;;;30.06;57.71;99305.09;335081;29;1296;-78
2023/07/23 00:38:25;;;;;;;;;;;;;;;30.06;57.54;99297.00;335411;29;2410;-78
2023/07/23 00:38:35;;;;;;;;;;;;;;;30.03;57.73;99292.00;334947;29;1612;-78
2023/07/23 00:38:45;;;;;;;;;;;;;;;30.02;57.29;99300.28;331785;29;1337;-78
2023/07/23 00:38:56;;;;;;;;;;;;;;;30.02;57.90;99300.28;334441;29;1176;-78
2023/07/23 00:39:06;;;;;;;;;;;;;;;29.99;57.42;99298.81;332070;29;2723;-78
2023/07/23 00:39:16;;;;;;;;;;;;;;;29.99;57.41;99296.13;331589;29;2054;-78
2023/07/23 00:39:28;;;;;;;;;;;;;;;29.98;57.50;99293.59;322149;30;1246;-78
2023/07/23 00:39:38;;;;;;;;;;;;;;;29.98;57.23;99297.13;326897;30;2390;-78
2023/07/23 00:39:49;;;;;;;;;;;;;;;29.99;57.95;99306.06;324924;30;2868;-78
2023/07/23 00:39:59;;;;;;;;;;;;;;;30.00;57.55;99299.66;321059;30;1288;-78
2023/07/23 00:40:10;;;;;;;;;;;;;;;30.01;57.52;99299.47;322441;30;2991;-78
2023/07/23 00:40:20;;;;;;;;;;;;;;;30.02;57.76;99305.69;323988;30;3065;-78
2023/07/23 00:40:30;;;;;;;;;;;;;;;30.01;57.53;99296.75;323523;30;971;-78
2023/07/23 00:40:40;;;;;;;;;;;;;;;30.03;57.61;99296.56;321655;30;2410;-78
2023/07/23 00:40:52;;;;;;;;;;;;;;;30.03;57.73;99304.66;318398;30;2324;-78
2023/07/23 00:41:02;;;;;;;;;;;;;;;30.01;57.39;99299.47;318780;30;2279;-78
2023/07/23 00:41:12;;;;;;;;;;;;;;;30.01;57.79;99304.84;320053;30;1123;-78
2023/07/23 00:41:23;;;;;;;;;;;;;;;30.00;57.60;99308.59;316925;30;2778;-78
2023/07/23 00:41:33;;;;;;;;;;;;;;;30.00;57.32;99303.19;315637;31;3038;-78
2023/07/23 00:41:43;;;;;;;;;;;;;;;30.00;57.45;99308.59;312615;31;1341;-78
2023/07/23 00:41:53;;;;;;;;;;;;;;;29.98;57.84;99301.69;311135;31;3875;-78
2023/07/23 00:42:04;;;;;;;;;;;;;;;29.98;57.14;99302.50;307245;31;4162;-78
2023/07/23 00:42:14;;;;;;;;;;;;;;;30.00;57.39;99302.34;307591;32;784;-78
2023/07/23 00:42:24;;;;;;;;;;;;;;;30.00;57.57;99303.19;308149;31;3829;-78
2023/07/23 00:42:34;;;;;;;;;;;;;;;30.00;57.54;99305.88;307041;31;3785;-78
2023/07/23 00:42:45;;;;;;;;;;;;;;;30.01;57.06;99304.03;308748;32;895;-78
2023/07/23 00:42:55;;;;;;;;;;;;;;;30.02;57.13;99305.69;303285;32;3687;-79
2023/07/23 00:43:05;;;;;;;;;;;;;;;30.03;56.66;99304.66;298170;32;3101;-78
2023/07/23 00:43:15;;;;;;;;;;;;;;;30.02;57.11;99306.53;301233;32;897;-79
2023/07/23 00:43:26;;;;;;;;;;;;;;;30.02;56.63;99306.53;299266;33;1212;-79
2023/07/23 00:43:36;;;;;;;;;;;;;;;30.02;57.21;99305.69;297064;33;4164;-79
2023/07/23 00:43:46;;;;;;;;;;;;;;;30.02;57.27;99306.53;296323;32;4666;-79
2023/07/23 00:43:56;;;;;;;;;;;;;;;30.02;56.59;99311.94;296231;33;1227;-79
2023/07/23 00:44:07;;;;;;;;;;;;;;;30.02;57.17;99303.81;293351;33;6000;-79
2023/07/23 00:44:17;;;;;;;;;;;;;;;30.02;56.71;99305.69;291670;33;4959;-79
2023/07/23 00:44:27;;;;;;;;;;;;;;;30.02;57.05;99300.28;297263;33;1256;-78
2023/07/23 00:44:37;;;;;;;;;;;;;;;30.02;56.98;99311.09;292431;33;5633;-78
2023/07/23 00:44:48;;;;;;;;;;;;;;;30.00;57.29;99303.19;290369;33;6039;-78
2023/07/23 00:44:58;;;;;;;;;;;;;;;30.00;57.11;99297.78;290312;34;1239;-77
2023/07/23 00:45:08;;;;;;;;;;;;;;;30.01;57.10;99304.03;286510;34;4995;-78
2023/07/23 00:45:19;;;;;;;;;;;;;;;30.01;57.72;99301.31;286963;34;4754;-78
2023/07/23 00:45:29;;;;;;;;;;;;;;;30.00;57.77;99303.19;287312;34;1350;-78
2023/07/23 00:45:40;;;;;;;;;;;;;;;30.01;57.68;99296.75;285061;34;4383;-78
2023/07/23 00:45:50;;;;;;;;;;;;;;;30.01;57.12;99307.56;283565;34;5515;-78
2023/07/23 00:46:00;;;;;;;;;;;;;;;30.01;57.59;99299.47;283924;34;786;-78
2023/07/23 00:46:10;;;;;;;;;;;;;;;30.01;57.43;99304.84;283156;34;7392;-78
2023/07/23 00:47:52;;;;;;;;;;;;;;;30.02;56.61;99306.53;2488909;27;19967;-78
2023/07/23 00:48:02;;;;;;;;;;;;;;;30.02;57.08;99309.22;353207;28;1222;-78
2023/07/23 00:48:13;;;;;;;;;;;;;;;30.02;56.63;99317.31;350558;28;1383;-78
2023/07/23 00:48:23;;;;;;;;;;;;;;;30.03;56.87;99312.75;349280;28;800;-78
2023/07/23 00:48:33;;;;;;;;;;;;;;;30.02;56.79;99317.31;347703;28;871;-78
2023/07/23 00:48:43;;;;;;;;;;;;;;;30.03;56.89;99316.28;348896;28;2754;-78
2023/07/23 00:48:54;;;;;;;;;;;;;;;30.03;57.29;99308.19;347743;28;900;-78
2023/07/23 00:49:04;;;;;;;;;;;;;;;30.03;57.17;99313.59;349068;28;1368;-78
2023/07/23 00:49:14;;;;;;;;;;;;;;;30.04;56.88;99315.25;351426;28;1183;-78
2023/07/23 00:49:24;;;;;;;;;;;;;;;30.03;57.42;99313.59;349805;28;1192;-78
2023/07/23 00:49:35;;;;;;;;;;;;;;;30.03;57.40;99321.69;347839;28;1208;-78
2023/07/23 00:49:45;;;;;;;;;;;;;;;30.02;56.85;99311.94;350092;28;1226;-78
2023/07/23 00:49:55;;;;;;;;;;;;;;;30.02;57.13;99314.63;349106;28;1085;-77
2023/07/23 00:50:05;;;;;;;;;;;;;;;30.00;57.57;99313.97;347930;28;818;-77
2023/07/23 00:50:16;;;;;;;;;;;;;;;30.00;57.32;99313.16;348288;28;1065;-77
2023/07/23 00:50:29;;;;;;;;;;;;;;;29.99;57.36;99312.31;347799;28;1365;-77
2023/07/23 00:50:39;;;;;;;;;;;;;;;29.95;57.44;99311.00;347588;28;1451;-78
2023/07/23 00:50:49;;;;;;;;;;;;;;;29.92;57.51;99311.38;349100;28;1335;-78
2023/07/23 00:50:59;;;;;;;;;;;;;;;29.88;57.33;99315.53;346106;28;1334;-78
2023/07/23 00:51:10;;;;;;;;;;;;;;;29.87;57.99;99311.16;347752;28;1064;-78
2023/07/23 00:51:20;;;;;;;;;;;;;;;29.85;58.21;99313.22;348247;28;1370;-78
2023/07/23 00:51:30;;;;;;;;;;;;;;;29.84;57.45;99308.84;348764;28;1322;-78
2023/07/23 00:51:41;;;;;;;;;;;;;;;29.84;57.94;99314.25;347646;28;938;-78
2023/07/23 00:51:51;;;;;;;;;;;;;;;29.83;57.87;99315.28;348304;28;1305;-78
2023/07/23 00:52:02;;;;;;;;;;;;;;;29.85;57.64;99313.22;346786;28;1341;-78
2023/07/23 00:52:12;;;;;;;;;;;;;;;29.86;58.14;99311.34;346623;28;1414;-78
2023/07/23 00:52:22;;;;;;;;;;;;;;;29.87;57.56;99321.13;345756;28;1197;-78
2023/07/23 00:52:33;;;;;;;;;;;;;;;29.87;58.14;99316.56;347647;28;954;-78
2023/07/23 00:52:43;;;;;;;;;;;;;;;29.86;57.41;99311.34;346501;28;1286;-78
2023/07/23 00:52:53;;;;;;;;;;;;;;;29.87;58.14;99318.41;346461;28;809;-78
2023/07/23 00:53:04;;;;;;;;;;;;;;;29.87;57.66;99316.56;348423;28;1184;-78
2023/07/23 00:53:15;;;;;;;;;;;;;;;29.87;57.76;99321.13;348116;28;1220;-78
2023/07/23 00:53:26;;;;;;;;;;;;;;;29.89;57.81;99316.38;349302;28;858;-78
2023/07/23 00:53:36;;;;;;;;;;;;;;;29.89;57.38;99311.81;343645;28;1165;-78
2023/07/23 00:53:46;;;;;;;;;;;;;;;29.91;57.30;99316.97;345923;28;1156;-78
2023/07/23 00:53:57;;;;;;;;;;;;;;;29.92;57.99;99327.56;346369;28;1351;-78
2023/07/23 00:54:08;;;;;;;;;;;;;;;29.92;57.46;99318.66;346252;28;1242;-78
2023/07/23 00:54:18;;;;;;;;;;;;;;;29.92;57.67;99326.75;345931;28;1184;-78
2023/07/23 00:54:28;;;;;;;;;;;;;;;29.89;57.82;99325.31;343385;28;1611;-78
2023/07/23 00:54:39;;;;;;;;;;;;;;;29.86;57.68;99316.75;345016;28;1339;-78
2023/07/23 00:54:49;;;;;;;;;;;;;;;29.84;57.69;99327.75;345914;28;1083;-78
2023/07/23 00:54:59;;;;;;;;;;;;;;;29.82;58.04;99321.69;342346;28;1332;-78
2023/07/23 00:55:09;;;;;;;;;;;;;;;29.79;58.22;99316.69;343722;28;1111;-78
2023/07/23 00:55:20;;;;;;;;;;;;;;;29.74;58.15;99324.53;343329;28;1355;-78
2023/07/23 00:55:30;;;;;;;;;;;;;;;29.71;58.67;99325.75;348291;28;1342;-78
2023/07/23 00:55:40;;;;;;;;;;;;;;;29.71;58.62;99331.16;345053;28;790;-78
2023/07/23 00:55:50;;;;;;;;;;;;;;;29.71;58.33;99330.31;345048;28;1393;-78
2023/07/23 00:56:00;;;;;;;;;;;;;;;29.71;58.78;99330.31;343312;28;1331;-78
2023/07/23 00:56:11;;;;;;;;;;;;;;;29.71;58.28;99331.16;342206;28;1224;-78
2023/07/23 00:56:21;;;;;;;;;;;;;;;29.73;58.13;99333.66;336270;29;3676;-78
2023/07/23 00:56:31;;;;;;;;;;;;;;;29.74;58.17;99329.91;335465;29;4454;-78
2023/07/23 00:56:43;;;;;;;;;;;;;;;29.76;58.48;99333.25;333861;29;5239;-80
2023/07/23 00:56:53;;;;;;;;;;;;;;;29.76;58.63;99327.88;337245;29;1230;-79
2023/07/23 00:57:03;;;;;;;;;;;;;;;29.77;58.26;99329.53;338327;29;3282;-79
2023/07/23 00:57:13;;;;;;;;;;;;;;;29.76;58.66;99335.97;339630;29;1275;-79
2023/07/23 00:57:24;;;;;;;;;;;;;;;29.76;58.05;99327.88;338555;29;1348;-80
2023/07/23 00:57:34;;;;;;;;;;;;;;;29.75;57.99;99337.00;337151;29;1436;-78
2023/07/23 00:57:44;;;;;;;;;;;;;;;29.74;58.71;99330.75;336229;29;1653;-78
2023/07/23 00:57:54;;;;;;;;;;;;;;;29.74;58.53;99329.91;335740;29;968;-78
2023/07/23 00:58:05;;;;;;;;;;;;;;;29.74;58.12;99329.91;335242;29;2224;-77
2023/07/23 00:58:15;;;;;;;;;;;;;;;29.75;58.56;99334.28;332695;29;1454;-79
2023/07/23 00:58:26;;;;;;;;;;;;;;;29.76;58.80;99327.88;333120;29;1319;-79
2023/07/23 00:58:37;;;;;;;;;;;;;;;29.76;57.99;99331.41;333269;29;827;-79
2023/07/23 00:58:47;;;;;;;;;;;;;;;29.77;57.99;99330.38;332886;29;1734;-79
2023/07/23 00:58:57;;;;;;;;;;;;;;;29.78;58.67;99332.03;331777;29;1452;-79
2023/07/23 00:59:08;;;;;;;;;;;;;;;29.79;58.14;99331.03;329177;29;1454;-79
2023/07/23 00:59:18;;;;;;;;;;;;;;;29.79;58.32;99332.88;328195;30;1281;-79
2023/07/23 00:59:30;;;;;;;;;;;;;;;29.78;58.42;99336.59;326818;30;1349;-79
2023/07/23 00:59:40;;;;;;;;;;;;;;;29.76;58.59;99327.88;326974;30;1344;-79
2023/07/23 00:59:51;;;;;;;;;;;;;;;29.75;58.08;99328.91;328428;30;1362;-79
2023/07/23 01:00:01;;;;;;;;;;;;;;;29.73;58.48;99328.25;327296;30;2035;-79
2023/07/23 01:00:12;;;;;;;;;;;;;;;29.72;58.18;99326.59;326617;30;2173;-79
2023/07/23 01:00:23;;;;;;;;;;;;;;;29.69;58.72;99321.56;325865;30;879;-79